Sparta, Virginia
Current Conditions -  °F | °C
As of 9:15 AM on Monday 22 Dec 2014 (Local Time) from KXSA Reporting Station
Light Rain Light Rain  
Wind Chill: 32°   Ceiling: 5000
Heat Index: 37°   Visibility: 4mi
Dew Point: 32°   Wind: 6mph
Humidity: 83%   Direction: 10°N
Pressure: 30.25"   Gusts: NA
Location:  37.99°N, 77.23°W
Report Text: KXSA 221415Z AUTO 01005KT 4SM -RA OVC050 03/00 A3025 RMK AO2 T00260000
Loading
Personal Weather Stations






























Interactive Weather Map New forecast layout! Learn more

10-Day Weather Forecast

Advertisements
Track Severe Weather on mobile